createdAt,value
2022-10-10T00:00:53.059Z,21.85
2022-10-10T00:03:31.532Z,24.48
2022-10-10T00:05:59.929Z,23.23
2022-10-10T00:08:27.763Z,25.35
2022-10-10T00:10:55.013Z,23.63
2022-10-10T00:13:22.615Z,24.75
2022-10-10T00:15:49.810Z,23.73
2022-10-10T00:18:17.846Z,28.98
2022-10-10T00:20:45.091Z,23.50
2022-10-10T00:23:12.690Z,28.05
2022-10-10T00:25:39.912Z,28.45
2022-10-10T00:28:07.320Z,27.25
2022-10-10T00:30:34.616Z,25.27
2022-10-10T00:33:02.061Z,23.13
2022-10-10T00:35:29.466Z,27.83
2022-10-10T00:37:57.084Z,25.98
2022-10-10T00:40:24.651Z,24.48
2022-10-10T00:42:52.378Z,21.58
2022-10-10T00:45:32.766Z,23.73
2022-10-10T00:48:05.224Z,24.42
2022-10-10T00:50:35.953Z,26.83
2022-10-10T00:53:05.720Z,24.38
2022-10-10T00:55:33.495Z,28.60
2022-10-10T00:58:00.979Z,22.58
2022-10-10T01:00:28.739Z,24.20
2022-10-10T01:02:56.096Z,24.63
2022-10-10T01:05:23.998Z,19.63
2022-10-10T01:07:51.781Z,26.70
2022-10-10T01:10:20.433Z,21.05
2022-10-10T01:13:29.878Z,23.27
2022-10-10T01:16:27.035Z,24.15
2022-10-10T01:19:00.340Z,25.77
2022-10-10T01:21:27.608Z,24.77
2022-10-10T01:24:29.135Z,26.25
2022-10-10T01:27:33.297Z,30.83
2022-10-10T01:30:15.550Z,30.77
2022-10-10T01:32:53.992Z,26.20
2022-10-10T01:35:39.674Z,27.73
2022-10-10T01:38:31.185Z,25.33
2022-10-10T01:41:04.005Z,26.63
2022-10-10T01:43:31.784Z,21.10
2022-10-10T01:45:58.939Z,22.45
2022-10-10T01:48:31.850Z,26.55
2022-10-10T01:51:31.314Z,28.63
2022-10-10T01:54:35.604Z,25.65
2022-10-10T01:57:11.797Z,20.42
2022-10-10T01:59:55.223Z,21.63
2022-10-10T02:02:48.789Z,20.23
2022-10-10T02:05:28.255Z,25.73
2022-10-10T02:08:04.167Z,29.73
2022-10-10T02:10:37.200Z,35.20
2022-10-10T02:13:06.258Z,31.45
2022-10-10T02:15:48.423Z,23.90
2022-10-10T02:18:18.461Z,20.48
2022-10-10T02:20:47.350Z,23.63
2022-10-10T02:23:17.671Z,24.58
2022-10-10T02:25:51.611Z,19.50
2022-10-10T02:29:02.593Z,19.38
2022-10-10T02:31:48.402Z,26.52
2022-10-10T02:34:18.998Z,18.67
2022-10-10T02:36:52.199Z,25.80
2022-10-10T02:39:23.978Z,26.63
2022-10-10T02:41:52.692Z,18.08
2022-10-10T02:44:20.487Z,20.85
2022-10-10T02:46:48.079Z,20.50
2022-10-10T02:49:22.704Z,25.52
2022-10-10T02:51:50.390Z,17.77
2022-10-10T02:54:17.601Z,21.70
2022-10-10T02:56:44.978Z,20.48
2022-10-10T02:59:12.107Z,48.72
2022-10-10T03:01:39.565Z,45.63
2022-10-10T03:04:07.020Z,30.65
2022-10-10T03:06:34.438Z,35.35
2022-10-10T03:09:01.937Z,29.40
2022-10-10T03:11:29.252Z,36.85
2022-10-10T03:13:56.438Z,78.97
2022-10-10T03:16:23.806Z,32.17
2022-10-10T03:18:51.051Z,19.30
2022-10-10T03:21:18.513Z,39.58
2022-10-10T03:23:46.136Z,25.05
2022-10-10T03:26:13.553Z,19.45
2022-10-10T03:28:40.993Z,19.45
2022-10-10T03:31:08.396Z,24.25
2022-10-10T03:33:35.911Z,22.30
2022-10-10T03:36:03.474Z,21.88
2022-10-10T03:38:30.896Z,19.42
2022-10-10T03:40:58.115Z,21.83
2022-10-10T03:43:25.563Z,16.90
2022-10-10T03:45:52.721Z,19.13
2022-10-10T03:48:20.378Z,21.90
2022-10-10T03:50:47.491Z,18.63
2022-10-10T03:53:15.710Z,26.65
2022-10-10T03:55:43.128Z,21.52
2022-10-10T03:58:11.411Z,23.98
2022-10-10T04:00:38.892Z,50.40
2022-10-10T04:03:06.843Z,28.08
2022-10-10T04:05:39.160Z,28.13
2022-10-10T04:08:06.770Z,19.73
2022-10-10T04:10:33.996Z,19.65
2022-10-10T04:13:01.704Z,20.73
2022-10-10T04:15:28.923Z,20.00
2022-10-10T04:17:56.752Z,29.05
2022-10-10T04:20:24.223Z,22.52
2022-10-10T04:22:52.191Z,21.48
2022-10-10T04:25:19.586Z,24.10
2022-10-10T04:27:47.359Z,20.50
2022-10-10T04:30:14.604Z,24.02
2022-10-10T04:32:42.260Z,22.17
2022-10-10T04:35:09.477Z,20.48
2022-10-10T04:37:37.428Z,30.88
2022-10-10T04:40:05.625Z,23.48
2022-10-10T04:42:33.208Z,30.20
2022-10-10T04:45:00.413Z,30.45
2022-10-10T04:47:27.820Z,29.30
2022-10-10T04:49:55.111Z,30.30
2022-10-10T04:52:22.532Z,29.38
2022-10-10T04:54:49.747Z,28.20
2022-10-10T04:57:17.353Z,25.38
2022-10-10T04:59:44.719Z,23.42
2022-10-10T05:02:12.096Z,26.10
2022-10-10T05:04:40.015Z,44.15
2022-10-10T05:07:07.396Z,47.42
2022-10-10T05:09:35.826Z,43.33
2022-10-10T05:12:03.259Z,33.75
2022-10-10T05:14:30.619Z,37.65
2022-10-10T05:16:58.052Z,53.13
2022-10-10T05:19:25.236Z,52.58
2022-10-10T05:21:52.627Z,51.53
2022-10-10T05:24:19.753Z,40.83
2022-10-10T05:26:47.167Z,41.40
2022-10-10T05:29:14.432Z,46.55
2022-10-10T05:31:42.077Z,41.15
2022-10-10T05:34:15.607Z,30.20
2022-10-10T05:36:43.271Z,26.25
2022-10-10T05:39:10.708Z,25.17
2022-10-10T05:41:38.152Z,36.25
2022-10-10T05:44:05.358Z,40.05
2022-10-10T05:46:32.740Z,34.60
2022-10-10T05:48:59.914Z,38.55
2022-10-10T05:51:27.368Z,38.88
2022-10-10T05:53:55.149Z,48.60
2022-10-10T05:56:25.903Z,55.10
2022-10-10T05:58:53.679Z,25.98
2022-10-10T06:01:21.053Z,35.05
2022-10-10T06:03:52.763Z,33.75
2022-10-10T06:06:20.146Z,23.88
2022-10-10T06:08:47.347Z,36.25
2022-10-10T06:11:17.250Z,25.70
2022-10-10T06:13:44.584Z,29.08
2022-10-10T06:16:12.387Z,33.22
2022-10-10T06:18:39.552Z,34.88
2022-10-10T06:21:08.544Z,38.97
2022-10-10T06:23:35.978Z,32.40
2022-10-10T06:26:04.404Z,44.58
2022-10-10T06:28:31.608Z,30.45
2022-10-10T06:31:09.580Z,38.20
2022-10-10T06:33:37.656Z,34.92
2022-10-10T06:36:08.632Z,30.83
2022-10-10T06:38:40.743Z,31.73
2022-10-10T06:41:08.887Z,35.25
2022-10-10T06:43:36.149Z,33.78
2022-10-10T06:46:05.473Z,31.10
2022-10-10T06:48:35.039Z,30.05
2022-10-10T06:51:05.969Z,28.55
2022-10-10T06:53:33.590Z,26.85
2022-10-10T06:56:01.762Z,24.60
2022-10-10T06:58:30.023Z,38.72
2022-10-10T07:01:02.199Z,25.77
2022-10-10T07:03:30.859Z,28.13
2022-10-10T07:06:03.395Z,24.80
2022-10-10T07:08:31.190Z,31.48
2022-10-10T07:10:58.552Z,30.08
2022-10-10T07:13:25.817Z,29.77
2022-10-10T07:15:53.540Z,29.17
2022-10-10T07:18:21.271Z,31.75
2022-10-10T07:20:49.768Z,31.48
2022-10-10T07:23:17.586Z,28.48
2022-10-10T07:25:45.070Z,23.85
2022-10-10T07:28:12.512Z,23.65
2022-10-10T07:30:46.858Z,27.23
2022-10-10T07:33:14.858Z,29.05
2022-10-10T07:35:42.942Z,31.33
2022-10-10T07:38:12.971Z,27.85
2022-10-10T07:40:41.698Z,27.83
2022-10-10T07:43:08.964Z,26.52
2022-10-10T07:45:37.371Z,27.90
2022-10-10T07:48:05.038Z,28.48
2022-10-10T07:50:32.692Z,27.55
2022-10-10T07:53:00.119Z,25.63
2022-10-10T07:55:27.682Z,22.00
2022-10-10T07:57:55.317Z,24.60
2022-10-10T08:00:23.070Z,25.43
2022-10-10T08:02:52.237Z,24.67
2022-10-10T08:05:19.632Z,24.33
2022-10-10T08:07:47.261Z,27.80
2022-10-10T08:10:15.514Z,25.45
2022-10-10T08:12:42.815Z,22.65
2022-10-10T08:17:42.952Z,24.52
2022-10-10T08:20:10.520Z,22.17
2022-10-10T08:22:37.740Z,25.90
2022-10-10T08:25:05.512Z,23.15
2022-10-10T08:27:32.763Z,28.15
2022-10-10T08:30:00.078Z,26.95
2022-10-10T08:32:27.404Z,22.23
2022-10-10T08:34:54.811Z,22.38
2022-10-10T08:37:25.798Z,21.45
2022-10-10T08:39:56.159Z,22.80
2022-10-10T08:42:48.012Z,25.33
2022-10-10T08:45:26.929Z,19.85
2022-10-10T08:48:05.486Z,18.45
2022-10-10T08:50:51.695Z,18.25
2022-10-10T08:53:27.702Z,18.17
2022-10-10T08:55:55.935Z,16.85
2022-10-10T08:58:33.344Z,14.10
2022-10-10T09:01:19.419Z,19.48
2022-10-10T09:03:54.622Z,16.08
2022-10-10T09:07:04.542Z,15.85
2022-10-10T09:09:38.009Z,14.40
2022-10-10T09:12:17.881Z,15.43
2022-10-10T09:15:23.988Z,14.23
2022-10-10T09:18:33.248Z,14.20
2022-10-10T09:21:24.030Z,14.05
2022-10-10T09:24:13.641Z,14.15
2022-10-10T09:26:49.108Z,16.77
2022-10-10T09:29:31.004Z,14.05
2022-10-10T09:32:05.399Z,14.25
2022-10-10T09:34:55.204Z,11.80
2022-10-10T09:37:46.421Z,13.82
2022-10-10T09:40:19.102Z,13.75
2022-10-10T09:42:46.611Z,11.68
2022-10-10T09:45:16.412Z,12.13
2022-10-10T09:47:43.890Z,15.68
2022-10-10T09:50:15.648Z,14.55
2022-10-10T09:52:43.936Z,11.57
2022-10-10T09:55:39.375Z,10.02
2022-10-10T09:58:43.567Z,11.07
2022-10-10T10:01:18.673Z,10.57
2022-10-10T10:04:28.801Z,11.63
2022-10-10T10:07:24.894Z,8.65
2022-10-10T10:10:19.728Z,12.93
2022-10-10T10:12:48.205Z,9.25
2022-10-10T10:15:21.299Z,12.48
2022-10-10T10:18:17.679Z,6.85
2022-10-10T10:20:50.736Z,11.35
2022-10-10T10:23:33.375Z,9.82
2022-10-10T10:26:01.979Z,11.43
2022-10-10T10:28:29.863Z,9.48
2022-10-10T10:30:58.990Z,10.27
2022-10-10T10:33:53.126Z,10.18
2022-10-10T10:36:26.307Z,11.45
2022-10-10T10:39:03.699Z,7.72
2022-10-10T10:42:07.647Z,10.73
2022-10-10T10:45:02.553Z,10.90
2022-10-10T10:47:57.780Z,9.85
2022-10-10T10:50:28.084Z,10.98
2022-10-10T10:53:32.877Z,7.55
2022-10-10T10:56:29.093Z,6.32
2022-10-10T11:02:55.048Z,6.13
2022-10-10T11:05:40.763Z,8.57
2022-10-10T11:08:15.063Z,8.43
2022-10-10T11:10:54.771Z,6.63
2022-10-10T11:13:48.079Z,9.68
2022-10-10T11:16:48.052Z,6.25
2022-10-10T11:19:23.960Z,7.97
2022-10-10T11:22:05.711Z,9.07
2022-10-10T11:25:01.009Z,10.25
2022-10-10T11:27:36.281Z,6.15
2022-10-10T11:30:14.630Z,6.88
2022-10-10T11:32:53.720Z,6.97
2022-10-10T11:35:58.583Z,6.20
2022-10-10T11:38:41.757Z,8.20
2022-10-10T11:41:17.157Z,8.80
2022-10-10T11:44:00.635Z,8.75
2022-10-10T11:46:49.798Z,8.32
2022-10-10T11:49:24.509Z,5.43
2022-10-10T11:52:04.888Z,8.13
2022-10-10T11:54:54.743Z,8.27
2022-10-10T11:57:44.508Z,7.38
2022-10-10T12:00:17.425Z,7.90
2022-10-10T12:02:47.372Z,7.68
2022-10-10T12:05:22.083Z,6.47
2022-10-10T12:07:54.990Z,5.85
2022-10-10T12:10:27.512Z,7.45
2022-10-10T12:12:59.053Z,8.07
2022-10-10T12:15:28.683Z,7.07
2022-10-10T12:17:57.088Z,7.22
2022-10-10T12:20:27.616Z,7.50
2022-10-10T12:23:23.141Z,6.95
2022-10-10T12:25:50.633Z,5.35
2022-10-10T12:28:24.147Z,9.07
2022-10-10T12:30:58.875Z,4.95
2022-10-10T12:33:26.175Z,6.63
2022-10-10T12:35:54.171Z,7.88
2022-10-10T12:38:26.207Z,7.45
2022-10-10T12:41:08.561Z,5.47
2022-10-10T12:43:45.095Z,6.72
2022-10-10T12:48:57.142Z,6.43
2022-10-10T12:51:25.618Z,7.15
2022-10-10T12:53:55.476Z,6.55
2022-10-10T12:56:42.648Z,8.00
2022-10-10T12:59:23.118Z,6.07
2022-10-10T13:01:55.450Z,6.55
2022-10-10T13:04:24.627Z,7.07
2022-10-10T13:06:58.336Z,4.53
2022-10-10T13:09:34.914Z,8.35
2022-10-10T13:12:06.479Z,7.38
2022-10-10T13:14:45.865Z,6.88
2022-10-10T13:17:45.481Z,9.15
2022-10-10T13:20:37.048Z,7.93
2022-10-10T13:23:12.940Z,8.57
2022-10-10T13:25:45.086Z,6.90
2022-10-10T13:28:20.766Z,7.60
2022-10-10T13:30:49.659Z,5.65
2022-10-10T13:33:23.272Z,4.53
2022-10-10T13:35:51.056Z,6.47
2022-10-10T13:38:23.274Z,6.95
2022-10-10T13:40:51.535Z,7.43
2022-10-10T13:43:20.145Z,4.20
2022-10-10T13:45:50.186Z,6.22
2022-10-10T13:48:40.578Z,4.80
2022-10-10T13:51:12.622Z,5.82
2022-10-10T13:53:44.498Z,4.10
2022-10-10T13:56:18.232Z,6.25
2022-10-10T13:59:08.065Z,5.65
2022-10-10T14:01:46.698Z,5.28
2022-10-10T14:04:17.686Z,4.40
2022-10-10T14:07:00.076Z,5.30
2022-10-10T14:09:32.071Z,6.30
2022-10-10T14:12:01.373Z,6.80
2022-10-10T14:14:45.726Z,5.32
2022-10-10T14:17:13.432Z,3.88
2022-10-10T14:19:42.190Z,6.63
2022-10-10T14:22:09.585Z,4.47
2022-10-10T14:24:37.186Z,4.80
2022-10-10T14:27:23.830Z,4.60
2022-10-10T14:29:56.709Z,5.72
2022-10-10T14:32:24.547Z,4.88
2022-10-10T14:34:51.997Z,5.55
2022-10-10T14:37:29.257Z,5.47
2022-10-10T14:39:56.449Z,7.95
2022-10-10T14:42:25.663Z,7.38
2022-10-10T14:44:52.961Z,10.60
2022-10-10T14:47:22.998Z,6.45
2022-10-10T14:49:52.843Z,9.10
2022-10-10T14:52:20.275Z,7.85
2022-10-10T14:54:47.422Z,7.65
2022-10-10T14:57:15.134Z,5.82
2022-10-10T14:59:47.955Z,7.75
2022-10-10T15:02:22.430Z,7.07
2022-10-10T15:04:50.783Z,4.97
2022-10-10T15:07:18.696Z,8.80
2022-10-10T15:10:32.168Z,8.30
2022-10-10T15:12:37.620Z,7.55
2022-10-10T15:15:06.544Z,6.63
2022-10-10T15:17:34.811Z,7.20
2022-10-10T15:20:04.111Z,8.93
2022-10-10T15:22:31.398Z,10.13
2022-10-10T15:24:58.931Z,10.10
2022-10-10T15:27:28.170Z,12.90
2022-10-10T15:29:55.849Z,10.52
2022-10-10T15:32:23.123Z,8.95
2022-10-10T15:34:50.982Z,8.02
2022-10-10T15:37:19.157Z,6.68
2022-10-10T15:39:47.771Z,9.20
2022-10-10T15:42:19.980Z,12.35
2022-10-10T15:44:50.609Z,12.32
2022-10-10T15:47:18.988Z,10.00
2022-10-10T15:49:46.471Z,13.25
2022-10-10T15:52:14.720Z,11.13
2022-10-10T15:54:42.057Z,13.18
2022-10-10T15:57:09.591Z,13.45
2022-10-10T15:59:39.234Z,13.40
2022-10-10T16:02:12.648Z,15.07
2022-10-10T16:04:39.896Z,12.02
2022-10-10T16:07:25.412Z,10.75
2022-10-10T16:09:54.619Z,13.85
2022-10-10T16:12:21.892Z,10.63
2022-10-10T16:14:49.105Z,9.25
2022-10-10T16:17:20.773Z,11.85
2022-10-10T16:19:50.312Z,10.10
2022-10-10T16:22:17.743Z,9.18
2022-10-10T16:24:58.210Z,10.70
2022-10-10T16:27:32.315Z,11.17
2022-10-10T16:29:59.513Z,12.90
2022-10-10T16:32:26.992Z,10.40
2022-10-10T16:34:54.193Z,11.57
2022-10-10T16:37:21.527Z,13.63
2022-10-10T16:39:48.809Z,11.23
2022-10-10T16:42:16.152Z,15.10
2022-10-10T16:44:43.508Z,11.40
2022-10-10T16:47:11.106Z,15.68
2022-10-10T16:49:38.353Z,12.00
2022-10-10T16:52:05.875Z,12.45
2022-10-10T16:54:33.103Z,12.73
2022-10-10T16:57:00.430Z,14.20
2022-10-10T16:59:29.248Z,16.83
2022-10-10T17:01:56.743Z,18.30
2022-10-10T17:04:23.952Z,13.27
2022-10-10T17:06:51.541Z,16.40
2022-10-10T17:09:19.029Z,20.88
2022-10-10T17:11:51.035Z,17.55
2022-10-10T17:14:18.895Z,17.98
2022-10-10T17:17:11.076Z,16.58
2022-10-10T17:19:33.838Z,19.40
2022-10-10T17:22:01.261Z,15.15
2022-10-10T17:24:28.595Z,15.93
2022-10-10T17:26:55.848Z,18.65
2022-10-10T17:29:23.766Z,23.17
2022-10-10T17:31:51.012Z,19.52
2022-10-10T17:34:18.300Z,19.00
2022-10-10T17:36:45.682Z,21.15
2022-10-10T17:39:12.866Z,22.10
2022-10-10T17:41:40.155Z,18.75
2022-10-10T17:44:10.852Z,22.50
2022-10-10T17:46:38.875Z,22.50
2022-10-10T17:49:08.094Z,23.00
2022-10-10T17:51:37.267Z,20.88
2022-10-10T17:54:06.466Z,14.27
2022-10-10T17:56:34.829Z,18.00
2022-10-10T17:59:08.546Z,16.60
2022-10-10T18:01:36.330Z,18.65
2022-10-10T18:04:04.053Z,16.42
2022-10-10T18:06:33.046Z,18.20
2022-10-10T18:09:00.847Z,20.42
2022-10-10T18:11:30.718Z,19.55
2022-10-10T18:14:00.880Z,16.38
2022-10-10T18:16:32.433Z,18.75
2022-10-10T18:19:00.729Z,19.40
2022-10-10T18:21:28.470Z,17.00
2022-10-10T18:23:56.654Z,13.07
2022-10-10T18:26:26.594Z,14.60
2022-10-10T18:28:55.967Z,13.88
2022-10-10T18:31:25.123Z,14.23
2022-10-10T18:33:53.111Z,17.98
2022-10-10T18:36:27.469Z,13.60
2022-10-10T18:39:08.125Z,14.27
2022-10-10T18:41:36.005Z,14.43
2022-10-10T18:44:12.574Z,12.80
2022-10-10T18:46:40.500Z,12.65
2022-10-10T18:49:10.985Z,18.00
2022-10-10T18:51:41.343Z,13.25
2022-10-10T18:54:10.167Z,12.35
2022-10-10T18:56:39.326Z,12.15
2022-10-10T18:59:10.542Z,13.98
2022-10-10T19:01:39.796Z,12.65
2022-10-10T19:04:09.384Z,13.25
2022-10-10T19:06:39.107Z,12.10
2022-10-10T19:09:09.180Z,9.43
2022-10-10T19:11:41.748Z,11.77
2022-10-10T19:14:12.397Z,12.00
2022-10-10T19:16:41.339Z,9.07
2022-10-10T19:19:08.595Z,11.65
2022-10-10T19:21:37.488Z,11.07
2022-10-10T19:24:07.023Z,10.80
2022-10-10T19:26:35.687Z,8.80
2022-10-10T19:29:07.190Z,10.32
2022-10-10T19:31:38.550Z,11.90
2022-10-10T19:34:05.970Z,10.90
2022-10-10T19:36:36.164Z,13.35
2022-10-10T19:39:06.392Z,11.57
2022-10-10T19:41:33.571Z,11.10
2022-10-10T19:44:04.827Z,9.73
2022-10-10T19:46:36.663Z,11.27
2022-10-10T19:49:04.708Z,12.15
2022-10-10T19:51:32.011Z,10.15
2022-10-10T19:53:59.487Z,12.45
2022-10-10T19:56:27.672Z,9.43
2022-10-10T19:59:00.781Z,9.18
2022-10-10T20:01:30.490Z,13.63
2022-10-10T20:03:58.619Z,11.98
2022-10-10T20:06:26.577Z,15.10
2022-10-10T20:08:54.640Z,9.35
2022-10-10T20:11:23.288Z,9.23
2022-10-10T20:13:53.234Z,9.35
2022-10-10T20:16:24.666Z,9.70
2022-10-10T20:18:52.610Z,10.48
2022-10-10T20:21:23.035Z,9.73
2022-10-10T20:23:50.515Z,10.10
2022-10-10T20:26:20.080Z,8.95
2022-10-10T20:28:48.082Z,11.18
2022-10-10T20:31:24.236Z,11.02
2022-10-10T20:33:53.885Z,10.20
2022-10-10T20:36:23.118Z,11.18
2022-10-10T20:39:01.611Z,11.80
2022-10-10T20:41:32.230Z,9.75
2022-10-10T20:44:03.220Z,13.10
2022-10-10T20:46:34.937Z,9.43
2022-10-10T20:49:03.898Z,12.63
2022-10-10T20:51:31.576Z,12.20
2022-10-10T20:54:01.728Z,12.15
2022-10-10T20:56:31.219Z,11.70
2022-10-10T20:58:59.165Z,13.93
2022-10-10T21:01:28.507Z,11.32
2022-10-10T21:03:56.258Z,9.38
2022-10-10T21:06:26.291Z,15.32
2022-10-10T21:08:54.319Z,13.73
2022-10-10T21:11:23.030Z,13.65
2022-10-10T21:13:56.730Z,11.45
2022-10-10T21:16:30.135Z,9.02
2022-10-10T21:18:58.602Z,11.18
2022-10-10T21:21:29.555Z,11.10
2022-10-10T21:23:57.186Z,14.95
2022-10-10T21:26:26.442Z,10.55
2022-10-10T21:28:54.612Z,13.25
2022-10-10T21:31:24.931Z,13.13
2022-10-10T21:33:52.518Z,11.82
2022-10-10T21:36:20.580Z,10.63
2022-10-10T21:38:47.939Z,13.55
2022-10-10T21:41:19.288Z,13.82
2022-10-10T21:43:49.082Z,11.07
2022-10-10T21:46:19.650Z,12.82
2022-10-10T21:48:46.827Z,10.40
2022-10-10T21:51:16.049Z,12.15
2022-10-10T21:53:44.198Z,13.07
2022-10-10T21:56:12.011Z,15.43
2022-10-10T21:58:41.985Z,10.27
2022-10-10T22:01:18.656Z,13.75
2022-10-10T22:03:48.052Z,10.85
2022-10-10T22:06:18.388Z,12.20
2022-10-10T22:08:46.958Z,13.15
2022-10-10T22:11:18.005Z,13.70
2022-10-10T22:13:45.387Z,10.20
2022-10-10T22:16:13.062Z,11.27
2022-10-10T22:18:41.404Z,12.73
2022-10-10T22:21:12.927Z,13.85
2022-10-10T22:23:40.212Z,10.55
2022-10-10T22:26:12.349Z,13.60
2022-10-10T22:28:39.903Z,13.40
2022-10-10T22:31:09.864Z,11.43
2022-10-10T22:33:37.541Z,11.57
2022-10-10T22:36:05.739Z,19.05
2022-10-10T22:38:36.076Z,10.05
2022-10-10T22:41:03.546Z,14.07
2022-10-10T22:43:30.757Z,12.77
2022-10-10T22:45:58.282Z,12.73
2022-10-10T22:48:25.892Z,15.18
2022-10-10T22:51:13.880Z,11.63
2022-10-10T22:53:42.556Z,14.15
2022-10-10T22:56:11.801Z,12.70
2022-10-10T22:58:39.008Z,14.65
2022-10-10T23:01:14.879Z,15.00
2022-10-10T23:03:42.622Z,13.60
2022-10-10T23:06:10.050Z,12.80
2022-10-10T23:08:37.495Z,13.77
2022-10-10T23:11:05.080Z,11.43
2022-10-10T23:13:32.791Z,12.68
2022-10-10T23:16:00.157Z,12.38
2022-10-10T23:18:30.811Z,13.48
2022-10-10T23:20:58.447Z,11.75
2022-10-10T23:23:25.894Z,12.48
2022-10-10T23:25:53.156Z,13.35
2022-10-10T23:28:20.527Z,12.90
2022-10-10T23:30:49.054Z,15.40
2022-10-10T23:33:17.086Z,13.18
2022-10-10T23:35:44.463Z,12.98
2022-10-10T23:38:11.714Z,13.65
2022-10-10T23:40:38.890Z,11.75
2022-10-10T23:43:07.451Z,13.52
2022-10-10T23:45:34.604Z,12.05
2022-10-10T23:48:01.944Z,13.15
2022-10-10T23:50:29.353Z,12.30
2022-10-10T23:52:56.504Z,12.90
2022-10-10T23:55:23.694Z,13.95
2022-10-10T23:57:51.192Z,11.82
